createdAt,value
2023-02-24T00:03:20.650Z,43.83
2023-02-24T00:08:22.804Z,44.09
2023-02-24T00:13:24.926Z,43.91
2023-02-24T00:18:27.018Z,43.59
2023-02-24T00:23:29.082Z,43.52
2023-02-24T00:28:31.286Z,43.55
2023-02-24T00:33:34.898Z,43.64
2023-02-24T00:38:38.836Z,44.19
2023-02-24T00:43:46.878Z,43.80
2023-02-24T00:48:49.909Z,43.30
2023-02-24T00:53:57.356Z,43.64
2023-02-24T00:59:00.552Z,43.35
2023-02-24T01:04:05.881Z,43.31
2023-02-24T01:09:08.556Z,43.45
2023-02-24T01:14:17.104Z,42.45
2023-02-24T01:19:30.554Z,42.35
2023-02-24T01:24:38.421Z,42.22
2023-02-24T01:29:41.769Z,41.76
2023-02-24T01:34:44.944Z,42.52
2023-02-24T01:39:48.093Z,41.75
2023-02-24T01:44:52.331Z,41.47
2023-02-24T01:49:55.169Z,41.70
2023-02-24T01:55:29.230Z,41.27
2023-02-24T02:00:38.234Z,41.62
2023-02-24T02:05:42.057Z,41.48
2023-02-24T02:10:44.849Z,42.48
2023-02-24T02:16:28.799Z,41.72
2023-02-24T02:22:06.140Z,42.41
2023-02-24T02:27:41.600Z,41.09
2023-02-24T02:33:02.090Z,41.92
2023-02-24T02:38:15.786Z,41.99
2023-02-24T02:43:46.305Z,41.33
2023-02-24T02:48:59.657Z,41.97
2023-02-24T02:54:45.562Z,42.80
2023-02-24T03:00:23.456Z,42.09
2023-02-24T03:05:31.651Z,42.05
2023-02-24T03:10:34.517Z,42.17
2023-02-24T03:15:42.251Z,42.52
2023-02-24T03:20:57.423Z,43.03
2023-02-24T03:26:17.238Z,42.40
2023-02-24T03:31:29.372Z,42.97
2023-02-24T03:36:33.328Z,42.94
2023-02-24T03:41:46.343Z,42.89
2023-02-24T03:46:48.833Z,43.15
2023-02-24T03:52:39.137Z,42.29
2023-02-24T03:57:59.972Z,43.80
2023-02-24T04:03:25.783Z,43.10
2023-02-24T04:08:41.468Z,43.81
2023-02-24T04:13:55.827Z,43.06
2023-02-24T04:19:05.610Z,43.27
2023-02-24T04:24:15.943Z,43.72
2023-02-24T04:29:23.887Z,43.88
2023-02-24T04:34:26.538Z,43.76
2023-02-24T04:39:30.948Z,43.20
2023-02-24T04:44:35.275Z,43.42
2023-02-24T04:49:37.289Z,43.93
2023-02-24T04:54:39.303Z,43.58
2023-02-24T04:59:41.304Z,43.88
2023-02-24T05:04:43.427Z,43.09
2023-02-24T05:09:47.173Z,42.96
2023-02-24T05:14:49.556Z,44.10
2023-02-24T05:20:10.063Z,43.81
2023-02-24T05:25:14.549Z,43.48
2023-02-24T05:30:16.620Z,43.35
2023-02-24T05:35:19.591Z,43.63
2023-02-24T05:40:25.091Z,42.81
2023-02-24T05:45:30.465Z,43.18
2023-02-24T05:50:32.531Z,43.22
2023-02-24T05:55:36.663Z,42.87
2023-02-24T06:00:40.211Z,43.34
2023-02-24T06:05:42.685Z,43.91
2023-02-24T06:10:47.169Z,43.56
2023-02-24T06:15:55.582Z,44.98
2023-02-24T06:20:58.606Z,45.13
2023-02-24T06:26:04.937Z,45.64
2023-02-24T06:31:07.089Z,46.65
2023-02-24T06:36:09.321Z,47.47
2023-02-24T06:41:11.368Z,48.82
2023-02-24T06:46:15.606Z,50.31
2023-02-24T06:51:17.784Z,51.16
2023-02-24T06:56:19.991Z,51.87
2023-02-24T07:01:28.061Z,51.58
2023-02-24T07:06:34.426Z,51.80
2023-02-24T07:11:38.136Z,53.77
2023-02-24T07:16:45.711Z,53.73
2023-02-24T07:21:50.338Z,52.47
2023-02-24T07:26:57.425Z,54.48
2023-02-24T07:32:03.861Z,53.39
2023-02-24T07:37:08.407Z,53.71
2023-02-24T07:42:13.908Z,52.49
2023-02-24T07:47:21.542Z,53.30
2023-02-24T07:52:23.686Z,53.25
2023-02-24T07:57:25.710Z,53.45
2023-02-24T08:02:29.439Z,52.69
2023-02-24T08:07:33.428Z,53.75
2023-02-24T08:12:35.750Z,53.44
2023-02-24T08:17:37.776Z,54.04
2023-02-24T08:22:46.899Z,54.03
2023-02-24T08:28:07.399Z,54.19
2023-02-24T08:33:11.803Z,51.37
2023-02-24T08:38:19.109Z,52.94
2023-02-24T08:43:32.977Z,54.83
2023-02-24T08:48:44.163Z,55.29
2023-02-24T08:53:47.222Z,54.90
2023-02-24T08:58:51.053Z,54.77
2023-02-24T09:03:56.380Z,53.20
2023-02-24T09:09:16.927Z,54.22
2023-02-24T09:14:28.973Z,54.49
2023-02-24T09:20:01.450Z,53.48
2023-02-24T09:25:40.665Z,53.46
2023-02-24T09:30:56.464Z,53.82
2023-02-24T09:36:09.935Z,53.79
2023-02-24T09:41:32.268Z,54.03
2023-02-24T09:46:54.217Z,54.33
2023-02-24T09:52:09.178Z,54.72
2023-02-24T09:57:20.643Z,54.81
2023-02-24T10:02:44.615Z,53.69
2023-02-24T10:07:47.531Z,53.78
2023-02-24T10:12:58.542Z,54.02
2023-02-24T10:18:27.425Z,53.05
2023-02-24T10:24:05.806Z,53.32
2023-02-24T10:29:33.928Z,53.76
2023-02-24T10:34:36.029Z,53.70
2023-02-24T10:39:42.619Z,53.69
2023-02-24T10:45:01.411Z,53.87
2023-02-24T10:50:12.866Z,53.48
2023-02-24T10:55:47.097Z,53.58
2023-02-24T11:01:12.590Z,52.89
2023-02-24T11:06:42.139Z,53.13
2023-02-24T11:12:03.537Z,53.18
2023-02-24T11:17:20.469Z,51.51
2023-02-24T11:22:29.036Z,51.92
2023-02-24T11:27:31.296Z,51.33
2023-02-24T11:32:59.083Z,52.01
2023-02-24T11:38:37.181Z,51.30
2023-02-24T11:43:43.632Z,51.43
2023-02-24T11:48:57.248Z,51.70
2023-02-24T11:54:18.342Z,50.90
2023-02-24T11:59:45.495Z,51.31
2023-02-24T12:05:14.425Z,51.13
2023-02-24T12:10:39.866Z,51.49
2023-02-24T12:15:48.836Z,52.90
2023-02-24T12:21:14.096Z,52.91
2023-02-24T12:26:48.110Z,53.13
2023-02-24T12:32:03.191Z,52.77
2023-02-24T12:37:10.905Z,52.91
2023-02-24T12:42:21.456Z,53.36
2023-02-24T12:47:41.667Z,54.59
2023-02-24T12:52:49.037Z,53.80
2023-02-24T12:58:03.146Z,54.27
2023-02-24T13:03:33.211Z,53.75
2023-02-24T13:08:50.656Z,53.88
2023-02-24T13:14:02.970Z,53.90
2023-02-24T13:19:20.824Z,54.32
2023-02-24T13:24:25.460Z,54.38
2023-02-24T13:29:27.508Z,54.20
2023-02-24T13:34:33.152Z,54.79
2023-02-24T13:39:38.698Z,55.09
2023-02-24T13:44:49.391Z,54.45
2023-02-24T13:49:57.502Z,55.84
2023-02-24T13:55:08.190Z,55.08
2023-02-24T14:00:42.365Z,55.24
2023-02-24T14:05:44.857Z,55.45
2023-02-24T14:10:55.277Z,55.84
2023-02-24T14:15:59.691Z,55.67
2023-02-24T14:21:01.836Z,55.38
2023-02-24T14:26:14.041Z,55.06
2023-02-24T14:31:22.148Z,55.50
2023-02-24T14:36:28.894Z,54.89
2023-02-24T14:41:30.985Z,55.27
2023-02-24T14:46:33.788Z,55.68
2023-02-24T14:51:36.723Z,55.74
2023-02-24T14:56:39.263Z,55.31
2023-02-24T15:01:47.100Z,56.02
2023-02-24T15:06:49.471Z,55.99
2023-02-24T15:11:56.662Z,56.54
2023-02-24T15:17:03.528Z,57.98
2023-02-24T15:22:20.148Z,57.84
2023-02-24T15:27:25.986Z,59.23
2023-02-24T15:32:30.894Z,59.58
2023-02-24T15:37:45.168Z,58.16
2023-02-24T15:43:07.663Z,58.43
2023-02-24T15:48:29.055Z,58.31
2023-02-24T15:53:32.729Z,59.30
2023-02-24T15:58:36.682Z,59.08
2023-02-24T16:03:39.240Z,59.76
2023-02-24T16:08:44.915Z,60.01
2023-02-24T16:14:00.132Z,60.00
2023-02-24T16:19:02.204Z,60.52
2023-02-24T16:24:04.355Z,60.80
2023-02-24T16:29:11.792Z,60.58
2023-02-24T16:34:16.173Z,60.80
2023-02-24T16:39:18.181Z,61.62
2023-02-24T16:44:20.262Z,61.21
2023-02-24T16:49:22.551Z,60.94
2023-02-24T16:54:29.292Z,61.95
2023-02-24T16:59:31.986Z,61.58
2023-02-24T17:04:34.048Z,61.84
2023-02-24T17:09:36.153Z,61.47
2023-02-24T17:14:38.183Z,61.53
2023-02-24T17:19:40.234Z,62.32
2023-02-24T17:24:42.283Z,62.40
2023-02-24T17:29:44.322Z,62.41
2023-02-24T17:34:46.329Z,62.56
2023-02-24T17:39:48.392Z,62.98
2023-02-24T17:44:50.406Z,62.71
2023-02-24T17:49:52.596Z,62.34
2023-02-24T17:54:55.146Z,62.02
2023-02-24T17:59:57.405Z,61.94
2023-02-24T18:04:59.630Z,63.41
2023-02-24T18:10:01.892Z,63.20
2023-02-24T18:15:08.975Z,62.60
2023-02-24T18:20:12.611Z,63.68
2023-02-24T18:25:14.742Z,62.92
2023-02-24T18:30:18.677Z,63.61
2023-02-24T18:35:22.124Z,62.89
2023-02-24T18:40:28.861Z,63.26
2023-02-24T18:45:31.407Z,62.77
2023-02-24T18:50:33.563Z,62.85
2023-02-24T18:55:36.053Z,63.36
2023-02-24T19:00:38.506Z,62.83
2023-02-24T19:05:40.507Z,63.62
2023-02-24T19:10:43.829Z,63.55
2023-02-24T19:15:45.929Z,63.18
2023-02-24T19:20:48.001Z,63.64
2023-02-24T19:25:50.266Z,63.35
2023-02-24T19:30:54.203Z,64.04
2023-02-24T19:35:59.672Z,63.38
2023-02-24T19:41:01.753Z,63.74
2023-02-24T19:46:07.961Z,63.82
2023-02-24T19:51:16.323Z,64.22
2023-02-24T19:56:22.984Z,63.60
2023-02-24T20:01:27.591Z,63.52
2023-02-24T20:06:36.291Z,64.12
2023-02-24T20:11:39.594Z,64.00
2023-02-24T20:16:43.192Z,63.98
2023-02-24T20:21:45.502Z,63.49
2023-02-24T20:26:49.709Z,63.46
2023-02-24T20:31:51.820Z,63.85
2023-02-24T20:36:54.252Z,64.30
2023-02-24T20:41:56.266Z,63.76
2023-02-24T20:46:58.792Z,63.26
2023-02-24T20:52:00.826Z,63.72
2023-02-24T20:57:02.949Z,63.55
2023-02-24T21:02:04.994Z,63.30
2023-02-24T21:07:07.072Z,64.04
2023-02-24T21:12:09.764Z,63.83
2023-02-24T21:17:12.589Z,63.85
2023-02-24T21:22:14.571Z,63.81
2023-02-24T21:27:16.675Z,64.08
2023-02-24T21:32:18.899Z,64.03
2023-02-24T21:37:21.147Z,63.54
2023-02-24T21:42:23.280Z,63.76
2023-02-24T21:47:25.401Z,63.82
2023-02-24T21:52:28.402Z,64.08
2023-02-24T21:57:31.014Z,63.75
2023-02-24T22:02:33.153Z,64.07
2023-02-24T22:07:36.927Z,63.49
2023-02-24T22:12:40.056Z,63.85
2023-02-24T22:17:42.274Z,63.61
2023-02-24T22:22:44.435Z,64.21
2023-02-24T22:27:46.476Z,63.89
2023-02-24T22:32:48.670Z,64.38
2023-02-24T22:37:50.776Z,65.12
2023-02-24T22:42:52.858Z,63.57
2023-02-24T22:47:55.000Z,63.76
2023-02-24T22:52:57.087Z,64.41
2023-02-24T22:57:59.181Z,65.00
2023-02-24T23:03:01.240Z,64.46
2023-02-24T23:08:03.562Z,65.02
2023-02-24T23:13:05.634Z,64.57
2023-02-24T23:18:08.249Z,64.85
2023-02-24T23:23:10.760Z,64.49
2023-02-24T23:28:12.833Z,64.72
2023-02-24T23:33:15.111Z,65.09
2023-02-24T23:38:17.545Z,65.17
2023-02-24T23:43:19.719Z,64.77
2023-02-24T23:48:21.721Z,64.56
2023-02-24T23:53:25.084Z,65.38
2023-02-24T23:58:27.491Z,64.78
